createdAt,value
2022-12-06T00:01:07.970Z,5.70
2022-12-06T00:02:09.421Z,5.90
2022-12-06T00:03:10.945Z,5.73
2022-12-06T00:04:14.396Z,6.07
2022-12-06T00:05:15.851Z,5.73
2022-12-06T00:06:18.529Z,5.50
2022-12-06T00:07:20.015Z,6.80
2022-12-06T00:08:21.537Z,6.03
2022-12-06T00:09:27.709Z,6.33
2022-12-06T00:10:29.094Z,6.20
2022-12-06T00:11:31.729Z,6.37
2022-12-06T00:12:33.129Z,5.93
2022-12-06T00:13:34.698Z,5.73
2022-12-06T00:14:36.040Z,6.20
2022-12-06T00:15:37.496Z,5.83
2022-12-06T00:16:38.963Z,5.83
2022-12-06T00:17:43.158Z,5.37
2022-12-06T00:18:45.345Z,5.60
2022-12-06T00:19:46.676Z,5.53
2022-12-06T00:20:48.013Z,5.83
2022-12-06T00:21:49.525Z,5.67
2022-12-06T00:22:50.895Z,5.37
2022-12-06T00:23:53.286Z,6.00
2022-12-06T00:24:54.614Z,5.50
2022-12-06T00:25:56.014Z,5.33
2022-12-06T00:26:57.477Z,5.17
2022-12-06T00:27:58.832Z,5.50
2022-12-06T00:29:00.379Z,5.10
2022-12-06T00:30:02.282Z,5.63
2022-12-06T00:31:05.184Z,5.43
2022-12-06T00:32:06.566Z,5.23
2022-12-06T00:33:07.988Z,5.53
2022-12-06T00:34:09.330Z,4.83
2022-12-06T00:35:10.951Z,5.87
2022-12-06T00:36:13.855Z,4.60
2022-12-06T00:37:15.234Z,5.00
2022-12-06T00:38:16.587Z,4.67
2022-12-06T00:39:18.711Z,5.40
2022-12-06T00:40:20.117Z,5.30
2022-12-06T00:41:23.038Z,5.17
2022-12-06T00:42:24.400Z,5.00
2022-12-06T00:43:25.982Z,4.97
2022-12-06T00:44:27.309Z,5.83
2022-12-06T00:45:28.689Z,5.20
2022-12-06T00:46:31.047Z,4.83
2022-12-06T00:47:32.449Z,4.77
2022-12-06T00:48:34.161Z,5.10
2022-12-06T00:49:35.538Z,4.97
2022-12-06T00:50:36.927Z,4.97
2022-12-06T00:51:38.714Z,5.53
2022-12-06T00:52:40.100Z,5.37
2022-12-06T00:53:41.752Z,4.50
2022-12-06T00:54:43.096Z,5.07
2022-12-06T00:55:44.725Z,5.30
2022-12-06T00:56:46.027Z,5.10
2022-12-06T00:57:47.777Z,5.00
2022-12-06T00:58:49.153Z,4.87
2022-12-06T00:59:50.530Z,4.63
2022-12-06T01:00:52.137Z,5.03
2022-12-06T01:01:58.173Z,4.50
2022-12-06T01:02:59.658Z,4.80
2022-12-06T01:04:02.111Z,4.77
2022-12-06T01:05:03.585Z,4.90
2022-12-06T01:06:06.597Z,4.73
2022-12-06T01:07:07.911Z,5.10
2022-12-06T01:08:09.845Z,5.10
2022-12-06T01:09:12.061Z,5.13
2022-12-06T01:10:13.548Z,5.07
2022-12-06T01:11:15.989Z,4.87
2022-12-06T01:12:17.439Z,4.70
2022-12-06T01:13:19.073Z,5.27
2022-12-06T01:14:20.463Z,5.03
2022-12-06T01:15:21.877Z,4.77
2022-12-06T01:16:27.230Z,5.13
2022-12-06T01:17:28.744Z,4.83
2022-12-06T01:18:30.120Z,5.13
2022-12-06T01:19:31.434Z,4.60
2022-12-06T01:20:33.965Z,5.20
2022-12-06T01:21:35.422Z,4.93
2022-12-06T01:22:36.817Z,5.07
2022-12-06T01:23:38.339Z,4.67
2022-12-06T01:24:39.818Z,5.43
2022-12-06T01:25:51.369Z,5.00
2022-12-06T01:26:52.808Z,4.60
2022-12-06T01:27:54.100Z,5.07
2022-12-06T01:28:55.469Z,5.43
2022-12-06T01:29:56.975Z,5.07
2022-12-06T01:30:58.825Z,4.90
2022-12-06T01:32:00.347Z,5.20
2022-12-06T01:33:01.706Z,5.20
2022-12-06T01:34:03.123Z,4.90
2022-12-06T01:35:04.695Z,4.97
2022-12-06T01:36:06.175Z,5.03
2022-12-06T01:37:07.506Z,5.47
2022-12-06T01:38:09.371Z,5.10
2022-12-06T01:39:10.959Z,4.90
2022-12-06T01:40:13.083Z,5.20
2022-12-06T01:41:14.429Z,4.97
2022-12-06T01:42:15.800Z,5.10
2022-12-06T01:43:36.220Z,4.87
2022-12-06T01:44:41.013Z,4.90
2022-12-06T01:45:42.751Z,4.60
2022-12-06T01:46:44.798Z,5.00
2022-12-06T01:47:46.535Z,4.83
2022-12-06T01:48:53.018Z,5.07
2022-12-06T01:49:54.371Z,5.10
2022-12-06T01:50:56.378Z,4.67
2022-12-06T01:52:03.070Z,4.73
2022-12-06T01:53:06.691Z,4.70
2022-12-06T01:54:10.814Z,4.90
2022-12-06T01:55:12.764Z,4.50
2022-12-06T01:56:14.264Z,4.60
2022-12-06T01:57:16.297Z,5.27
2022-12-06T01:58:19.047Z,4.73
2022-12-06T01:59:20.985Z,4.57
2022-12-06T02:00:22.620Z,4.43
2022-12-06T02:01:25.449Z,4.97
2022-12-06T02:02:27.003Z,4.87
2022-12-06T02:03:30.490Z,4.80
2022-12-06T02:04:32.004Z,4.63
2022-12-06T02:05:40.441Z,4.60
2022-12-06T02:06:43.132Z,4.70
2022-12-06T02:07:44.715Z,4.90
2022-12-06T02:08:48.598Z,4.27
2022-12-06T02:09:51.425Z,5.20
2022-12-06T02:10:53.235Z,4.97
2022-12-06T02:11:54.801Z,4.90
2022-12-06T02:12:56.797Z,5.27
2022-12-06T02:13:58.354Z,5.13
2022-12-06T02:14:59.706Z,4.67
2022-12-06T02:16:01.079Z,5.17
2022-12-06T02:17:13.604Z,5.00
2022-12-06T02:18:19.448Z,4.90
2022-12-06T02:19:32.983Z,4.70
2022-12-06T02:20:41.770Z,5.40
2022-12-06T02:22:01.063Z,4.90
2022-12-06T02:23:12.419Z,4.73
2022-12-06T02:24:19.893Z,5.50
2022-12-06T02:25:34.014Z,5.00
2022-12-06T02:26:37.541Z,4.70
2022-12-06T02:27:57.541Z,5.10
2022-12-06T02:29:17.265Z,5.00
2022-12-06T02:30:36.573Z,4.77
2022-12-06T02:31:41.757Z,4.60
2022-12-06T02:32:53.251Z,5.00
2022-12-06T02:34:02.304Z,4.60
2022-12-06T02:35:06.436Z,4.50
2022-12-06T02:36:12.798Z,5.00
2022-12-06T02:37:22.939Z,4.70
2022-12-06T02:38:30.343Z,5.20
2022-12-06T02:39:31.687Z,5.43
2022-12-06T02:40:35.779Z,5.00
2022-12-06T02:41:40.195Z,4.97
2022-12-06T02:42:44.577Z,5.83
2022-12-06T02:43:48.613Z,5.00
2022-12-06T02:44:53.248Z,5.50
2022-12-06T02:45:57.061Z,4.90
2022-12-06T02:46:59.559Z,5.10
2022-12-06T02:48:02.538Z,4.80
2022-12-06T02:49:06.654Z,4.80
2022-12-06T02:50:13.819Z,4.90
2022-12-06T02:51:16.942Z,4.70
2022-12-06T02:52:19.907Z,4.70
2022-12-06T02:53:22.364Z,4.90
2022-12-06T02:54:24.704Z,4.67
2022-12-06T02:55:26.432Z,4.80
2022-12-06T02:56:28.316Z,4.10
2022-12-06T02:57:41.681Z,5.03
2022-12-06T02:58:43.228Z,4.83
2022-12-06T02:59:51.588Z,5.63
2022-12-06T03:00:54.831Z,4.57
2022-12-06T03:01:58.161Z,5.07
2022-12-06T03:03:12.612Z,4.63
2022-12-06T03:04:27.436Z,4.83
2022-12-06T03:05:33.835Z,5.00
2022-12-06T03:06:42.201Z,4.87
2022-12-06T03:07:45.354Z,5.03
2022-12-06T03:08:46.696Z,4.93
2022-12-06T03:09:53.248Z,4.93
2022-12-06T03:10:57.644Z,4.90
2022-12-06T03:12:05.197Z,5.40
2022-12-06T03:13:18.114Z,5.40
2022-12-06T03:14:24.564Z,5.00
2022-12-06T03:15:34.163Z,4.77
2022-12-06T03:16:44.637Z,5.20
2022-12-06T03:18:00.997Z,5.20
2022-12-06T03:19:15.464Z,5.23
2022-12-06T03:20:21.002Z,4.97
2022-12-06T03:21:32.899Z,5.20
2022-12-06T03:22:40.033Z,5.43
2022-12-06T03:23:44.975Z,5.40
2022-12-06T03:24:47.154Z,5.30
2022-12-06T03:25:50.169Z,5.17
2022-12-06T03:26:53.607Z,5.20
2022-12-06T03:27:56.828Z,5.13
2022-12-06T03:29:00.182Z,5.20
2022-12-06T03:30:04.195Z,4.93
2022-12-06T03:31:10.388Z,4.90
2022-12-06T03:32:14.126Z,5.00
2022-12-06T03:33:16.131Z,4.87
2022-12-06T03:34:20.955Z,5.60
2022-12-06T03:35:25.904Z,4.93
2022-12-06T03:36:28.687Z,5.33
2022-12-06T03:37:31.967Z,5.20
2022-12-06T03:39:00.068Z,5.07
2022-12-06T03:40:13.841Z,4.90
2022-12-06T03:41:17.614Z,5.00
2022-12-06T03:42:19.844Z,5.30
2022-12-06T03:43:21.606Z,5.10
2022-12-06T03:44:23.710Z,5.57
2022-12-06T03:45:28.578Z,5.57
2022-12-06T03:46:34.377Z,5.70
2022-12-06T03:47:47.145Z,5.40
2022-12-06T03:48:51.166Z,4.70
2022-12-06T03:49:55.487Z,5.23
2022-12-06T03:51:07.894Z,5.33
2022-12-06T03:52:09.855Z,5.20
2022-12-06T03:53:11.449Z,4.60
2022-12-06T03:54:12.865Z,5.60
2022-12-06T03:55:14.264Z,5.10
2022-12-06T03:56:15.942Z,4.73
2022-12-06T03:57:17.318Z,5.03
2022-12-06T03:58:18.860Z,5.20
2022-12-06T03:59:20.440Z,5.60
2022-12-06T04:00:21.908Z,5.50
2022-12-06T04:01:23.805Z,5.40
2022-12-06T04:02:25.306Z,5.27
2022-12-06T04:03:26.862Z,4.93
2022-12-06T04:04:28.543Z,5.20
2022-12-06T04:05:30.051Z,5.00
2022-12-06T04:06:31.719Z,5.23
2022-12-06T04:07:33.251Z,4.70
2022-12-06T04:08:34.819Z,5.00
2022-12-06T04:10:02.889Z,5.50
2022-12-06T04:11:05.117Z,5.27
2022-12-06T04:12:26.668Z,4.90
2022-12-06T04:13:28.473Z,5.27
2022-12-06T04:14:39.154Z,5.20
2022-12-06T04:15:40.761Z,4.77
2022-12-06T04:17:01.054Z,5.07
2022-12-06T04:18:13.602Z,5.30
2022-12-06T04:19:15.392Z,5.23
2022-12-06T04:20:17.114Z,4.83
2022-12-06T04:21:34.039Z,5.10
2022-12-06T04:22:54.642Z,4.83
2022-12-06T04:23:56.125Z,5.20
2022-12-06T04:24:57.660Z,4.90
2022-12-06T04:25:59.309Z,4.67
2022-12-06T04:27:19.346Z,5.07
2022-12-06T04:28:39.640Z,5.43
2022-12-06T04:29:59.892Z,5.07
2022-12-06T04:31:22.449Z,4.87
2022-12-06T04:32:42.788Z,5.33
2022-12-06T04:34:02.820Z,5.17
2022-12-06T04:35:22.941Z,4.83
2022-12-06T04:36:43.314Z,5.53
2022-12-06T04:38:03.523Z,5.63
2022-12-06T04:39:05.302Z,5.33
2022-12-06T04:40:07.284Z,4.93
2022-12-06T04:41:12.225Z,5.30
2022-12-06T04:42:32.431Z,5.13
2022-12-06T04:43:42.942Z,5.07
2022-12-06T04:44:44.771Z,5.23
2022-12-06T04:45:46.207Z,5.37
2022-12-06T04:46:48.382Z,5.43
2022-12-06T04:47:49.901Z,5.20
2022-12-06T04:48:52.149Z,4.80
2022-12-06T04:49:53.688Z,5.60
2022-12-06T04:50:55.218Z,5.67
2022-12-06T04:51:56.891Z,5.50
2022-12-06T04:52:58.367Z,5.47
2022-12-06T04:54:00.054Z,5.63
2022-12-06T04:55:01.672Z,5.87
2022-12-06T04:56:03.253Z,5.80
2022-12-06T04:57:10.863Z,6.00
2022-12-06T04:58:12.412Z,5.60
2022-12-06T04:59:13.994Z,5.47
2022-12-06T05:00:15.651Z,5.80
2022-12-06T05:01:17.111Z,5.30
2022-12-06T05:02:18.499Z,5.60
2022-12-06T05:03:20.272Z,5.40
2022-12-06T05:04:21.780Z,5.80
2022-12-06T05:05:23.217Z,5.70
2022-12-06T05:06:24.704Z,5.43
2022-12-06T05:07:26.094Z,5.77
2022-12-06T05:08:27.855Z,5.63
2022-12-06T05:09:29.324Z,5.67
2022-12-06T05:10:31.021Z,6.00
2022-12-06T05:11:32.477Z,5.43
2022-12-06T05:12:33.987Z,5.53
2022-12-06T05:13:35.581Z,5.93
2022-12-06T05:14:37.046Z,6.80
2022-12-06T05:15:38.395Z,6.07
2022-12-06T05:16:39.814Z,6.00
2022-12-06T05:17:41.205Z,6.00
2022-12-06T05:18:42.586Z,5.83
2022-12-06T05:19:43.919Z,5.20
2022-12-06T05:20:45.400Z,5.57
2022-12-06T05:21:47.167Z,5.17
2022-12-06T05:22:48.510Z,5.00
2022-12-06T05:23:52.097Z,5.43
2022-12-06T05:24:53.522Z,5.07
2022-12-06T05:25:59.534Z,5.27
2022-12-06T05:27:00.839Z,4.77
2022-12-06T05:28:02.210Z,5.40
2022-12-06T05:29:03.756Z,5.13
2022-12-06T05:30:05.831Z,5.27
2022-12-06T05:31:07.558Z,5.30
2022-12-06T05:32:09.021Z,5.03
2022-12-06T05:33:10.361Z,5.03
2022-12-06T05:34:11.765Z,5.83
2022-12-06T05:35:13.138Z,5.13
2022-12-06T05:36:25.015Z,4.73
2022-12-06T05:37:26.336Z,4.53
2022-12-06T05:38:27.636Z,4.33
2022-12-06T05:39:29.493Z,4.30
2022-12-06T05:40:30.884Z,4.50
2022-12-06T05:41:32.245Z,4.27
2022-12-06T05:42:33.626Z,4.60
2022-12-06T05:43:35.066Z,4.53
2022-12-06T05:44:36.408Z,4.57
2022-12-06T05:45:38.150Z,4.97
2022-12-06T05:46:39.682Z,4.53
2022-12-06T05:47:41.052Z,4.60
2022-12-06T05:48:42.504Z,4.50
2022-12-06T05:49:44.436Z,4.60
2022-12-06T05:50:49.349Z,4.43
2022-12-06T05:51:50.735Z,4.80
2022-12-06T05:52:55.067Z,4.00
2022-12-06T05:53:56.494Z,4.50
2022-12-06T05:54:57.811Z,4.30
2022-12-06T05:56:06.013Z,4.30
2022-12-06T05:57:07.336Z,4.27
2022-12-06T05:58:08.803Z,4.43
2022-12-06T05:59:13.523Z,4.40
2022-12-06T06:00:15.950Z,4.77
2022-12-06T06:01:17.361Z,4.70
2022-12-06T06:02:18.825Z,4.70
2022-12-06T06:03:24.043Z,4.57
2022-12-06T06:04:25.385Z,4.27
2022-12-06T06:05:26.729Z,4.03
2022-12-06T06:06:28.330Z,4.50
2022-12-06T06:07:29.623Z,4.33
2022-12-06T06:08:31.389Z,4.60
2022-12-06T06:09:32.718Z,4.63
2022-12-06T06:10:34.101Z,4.43
2022-12-06T06:11:35.398Z,4.70
2022-12-06T06:12:36.711Z,4.03
2022-12-06T06:13:38.046Z,4.30
2022-12-06T06:14:39.523Z,4.47
2022-12-06T06:15:40.865Z,4.20
2022-12-06T06:16:42.271Z,4.03
2022-12-06T06:17:43.739Z,4.60
2022-12-06T06:18:45.078Z,4.70
2022-12-06T06:19:51.145Z,4.60
2022-12-06T06:20:53.847Z,4.50
2022-12-06T06:21:55.209Z,4.93
2022-12-06T06:22:57.938Z,4.10
2022-12-06T06:23:59.335Z,4.20
2022-12-06T06:25:01.157Z,4.37
2022-12-06T06:26:06.222Z,4.83
2022-12-06T06:27:07.589Z,4.80
2022-12-06T06:28:09.019Z,4.70
2022-12-06T06:29:10.433Z,4.20
2022-12-06T06:30:12.872Z,4.60
2022-12-06T06:31:14.447Z,5.30
2022-12-06T06:32:15.867Z,4.30
2022-12-06T06:33:17.555Z,4.53
2022-12-06T06:34:18.991Z,4.90
2022-12-06T06:35:20.516Z,4.60
2022-12-06T06:36:22.355Z,4.70
2022-12-06T06:37:24.792Z,4.60
2022-12-06T06:38:26.779Z,4.90
2022-12-06T06:39:28.123Z,4.50
2022-12-06T06:40:29.451Z,4.90
2022-12-06T06:41:30.748Z,4.40
2022-12-06T06:42:32.109Z,4.83
2022-12-06T06:43:33.716Z,4.23
2022-12-06T06:44:35.012Z,4.50
2022-12-06T06:45:36.439Z,4.53
2022-12-06T06:46:37.821Z,3.90
2022-12-06T06:47:39.475Z,4.20
2022-12-06T06:48:40.805Z,4.10
2022-12-06T06:49:42.159Z,4.03
2022-12-06T06:50:43.500Z,3.60
2022-12-06T06:51:45.191Z,4.07
2022-12-06T06:52:48.819Z,4.17
2022-12-06T06:53:51.599Z,3.73
2022-12-06T06:54:53.183Z,3.77
2022-12-06T06:55:54.550Z,3.93
2022-12-06T06:56:56.425Z,3.53
2022-12-06T06:57:57.851Z,3.80
2022-12-06T06:58:59.181Z,4.00
2022-12-06T07:00:01.151Z,3.47
2022-12-06T07:01:04.030Z,3.73
2022-12-06T07:02:05.506Z,4.40
2022-12-06T07:03:07.064Z,3.60
2022-12-06T07:04:08.419Z,4.30
2022-12-06T07:05:09.857Z,4.53
2022-12-06T07:06:11.375Z,4.20
2022-12-06T07:07:17.843Z,3.90
2022-12-06T07:08:23.048Z,3.97
2022-12-06T07:09:24.572Z,3.77
2022-12-06T07:10:27.277Z,4.17
2022-12-06T07:11:28.682Z,4.40
2022-12-06T07:12:30.131Z,3.67
2022-12-06T07:13:31.837Z,4.00
2022-12-06T07:14:33.336Z,4.00
2022-12-06T07:15:35.823Z,3.80
2022-12-06T07:16:37.523Z,4.27
2022-12-06T07:17:38.932Z,4.10
2022-12-06T07:18:40.306Z,4.10
2022-12-06T07:19:41.729Z,4.37
2022-12-06T07:20:43.542Z,4.00
2022-12-06T07:21:44.951Z,3.73
2022-12-06T07:22:46.646Z,3.90
2022-12-06T07:23:48.176Z,3.83
2022-12-06T07:24:52.483Z,4.83
2022-12-06T07:26:07.451Z,4.83
2022-12-06T07:27:08.762Z,4.73
2022-12-06T07:28:10.115Z,4.70
2022-12-06T07:29:11.485Z,4.50
2022-12-06T07:30:17.018Z,4.30
2022-12-06T07:31:20.754Z,4.57
2022-12-06T07:32:22.099Z,4.37
2022-12-06T07:33:23.488Z,4.63
2022-12-06T07:34:24.941Z,4.50
2022-12-06T07:35:42.014Z,5.10
2022-12-06T07:36:47.773Z,4.90
2022-12-06T07:37:49.101Z,4.40
2022-12-06T07:38:52.174Z,4.90
2022-12-06T07:39:53.454Z,4.20
2022-12-06T07:41:05.159Z,4.90
2022-12-06T07:42:25.342Z,4.93
2022-12-06T07:43:46.861Z,4.60
2022-12-06T07:45:05.515Z,5.00
2022-12-06T07:46:10.719Z,4.03
2022-12-06T07:47:12.165Z,4.53
2022-12-06T07:48:13.963Z,4.30
2022-12-06T07:49:16.061Z,4.37
2022-12-06T07:50:18.928Z,4.73
2022-12-06T07:51:20.259Z,4.57
2022-12-06T07:52:21.794Z,4.43
2022-12-06T07:53:24.137Z,4.53
2022-12-06T07:54:25.922Z,4.83
2022-12-06T07:55:27.296Z,4.73
2022-12-06T07:56:28.743Z,4.10
2022-12-06T07:57:30.129Z,4.47
2022-12-06T07:58:34.793Z,4.23
2022-12-06T07:59:36.180Z,4.20
2022-12-06T08:00:37.640Z,4.40
2022-12-06T08:01:39.230Z,4.20
2022-12-06T08:02:40.628Z,4.20
2022-12-06T08:03:42.182Z,4.20
2022-12-06T08:04:43.705Z,4.43
2022-12-06T08:05:52.982Z,4.10
2022-12-06T08:06:54.463Z,4.37
2022-12-06T08:07:55.828Z,4.40
2022-12-06T08:08:57.429Z,4.40
2022-12-06T08:09:59.128Z,4.27
2022-12-06T08:11:01.298Z,4.37
2022-12-06T08:12:02.714Z,4.10
2022-12-06T08:13:04.044Z,4.17
2022-12-06T08:14:05.437Z,4.53
2022-12-06T08:15:12.805Z,4.33
2022-12-06T08:16:14.230Z,3.90
2022-12-06T08:17:15.708Z,4.30
2022-12-06T08:18:17.114Z,4.10
2022-12-06T08:19:18.516Z,4.40
2022-12-06T08:20:20.059Z,4.27
2022-12-06T08:21:21.471Z,4.40
2022-12-06T08:22:22.872Z,4.30
2022-12-06T08:23:27.976Z,3.90
2022-12-06T08:24:32.046Z,4.20
2022-12-06T08:25:33.424Z,4.27
2022-12-06T08:26:36.397Z,4.13
2022-12-06T08:27:37.801Z,4.20
2022-12-06T08:28:39.298Z,4.17
2022-12-06T08:29:40.737Z,4.27
2022-12-06T08:30:42.199Z,4.23
2022-12-06T08:31:45.460Z,4.53
2022-12-06T08:32:47.069Z,4.30
2022-12-06T08:33:48.909Z,4.30
2022-12-06T08:34:50.277Z,4.40
2022-12-06T08:35:51.880Z,4.30
2022-12-06T08:36:53.232Z,4.23
2022-12-06T08:37:54.609Z,4.17
2022-12-06T08:38:56.585Z,4.30
2022-12-06T08:39:58.143Z,4.23
2022-12-06T08:40:59.703Z,3.93
2022-12-06T08:42:03.513Z,4.23
2022-12-06T08:43:04.865Z,4.07
2022-12-06T08:44:06.936Z,4.10
2022-12-06T08:45:08.678Z,4.17
2022-12-06T08:46:10.032Z,4.27
2022-12-06T08:47:11.449Z,3.93
2022-12-06T08:48:12.781Z,4.10
2022-12-06T08:49:14.768Z,3.60
2022-12-06T08:50:16.106Z,3.83
2022-12-06T08:51:17.568Z,3.83
2022-12-06T08:52:18.969Z,4.27
2022-12-06T08:53:20.345Z,4.63
2022-12-06T08:54:23.063Z,4.50
2022-12-06T08:55:26.840Z,4.43
2022-12-06T08:56:28.421Z,4.13
2022-12-06T08:57:31.851Z,4.10
2022-12-06T08:58:33.242Z,3.80
2022-12-06T08:59:34.601Z,4.27
2022-12-06T09:00:35.948Z,4.30
2022-12-06T09:01:38.443Z,4.50
2022-12-06T09:02:40.594Z,4.90
2022-12-06T09:03:41.999Z,4.60
2022-12-06T09:04:43.337Z,4.60
2022-12-06T09:05:44.821Z,4.60
2022-12-06T09:06:46.294Z,4.30
2022-12-06T09:07:47.643Z,4.73
2022-12-06T09:08:49.088Z,5.10
2022-12-06T09:09:50.420Z,4.40
2022-12-06T09:10:51.831Z,4.30
2022-12-06T09:11:53.304Z,4.57
2022-12-06T09:12:54.670Z,4.30
2022-12-06T09:13:56.095Z,4.53
2022-12-06T09:14:57.408Z,4.40
2022-12-06T09:15:58.862Z,4.23
2022-12-06T09:17:00.292Z,4.43
2022-12-06T09:18:01.626Z,4.67
2022-12-06T09:19:03.226Z,4.63
2022-12-06T09:20:06.308Z,4.30
2022-12-06T09:21:09.431Z,4.77
2022-12-06T09:22:10.756Z,4.70
2022-12-06T09:23:12.129Z,4.40
2022-12-06T09:24:14.289Z,4.43
2022-12-06T09:25:15.610Z,4.20
2022-12-06T09:26:17.019Z,4.27
2022-12-06T09:27:19.578Z,4.57
2022-12-06T09:28:20.934Z,4.53
2022-12-06T09:29:22.386Z,4.30
2022-12-06T09:30:24.469Z,4.67
2022-12-06T09:31:25.977Z,4.70
2022-12-06T09:32:27.394Z,4.60
2022-12-06T09:33:28.733Z,4.47
2022-12-06T09:34:31.052Z,3.87
2022-12-06T09:35:33.048Z,4.50
2022-12-06T09:36:36.233Z,4.20
2022-12-06T09:37:37.558Z,4.50
2022-12-06T09:38:40.466Z,4.17
2022-12-06T09:39:48.302Z,4.33
2022-12-06T09:41:25.252Z,4.83
2022-12-06T09:42:26.527Z,4.20
2022-12-06T09:43:36.617Z,4.20
2022-12-06T09:44:53.121Z,5.23
2022-12-06T09:45:54.532Z,4.50
2022-12-06T09:47:14.284Z,4.57
2022-12-06T09:48:15.613Z,3.87
2022-12-06T09:49:16.988Z,4.10
2022-12-06T09:50:26.512Z,4.07
2022-12-06T09:51:40.138Z,4.00
2022-12-06T09:52:52.203Z,4.27
2022-12-06T09:53:53.482Z,4.07
2022-12-06T09:55:00.302Z,4.10
2022-12-06T09:56:02.021Z,4.57
2022-12-06T09:57:38.869Z,4.13
2022-12-06T09:58:43.355Z,4.40
2022-12-06T09:59:47.684Z,4.20
2022-12-06T10:01:18.249Z,4.00
2022-12-06T10:02:25.656Z,4.07
2022-12-06T10:03:39.337Z,4.67
2022-12-06T10:04:53.538Z,4.30
2022-12-06T10:06:02.771Z,4.40
2022-12-06T10:07:04.098Z,4.57
2022-12-06T10:08:24.931Z,4.40
2022-12-06T10:09:26.507Z,3.83
2022-12-06T10:10:39.864Z,3.77
2022-12-06T10:11:41.193Z,3.90
2022-12-06T10:13:02.824Z,4.17
2022-12-06T10:14:10.135Z,4.23
2022-12-06T10:15:20.801Z,4.10
2022-12-06T10:16:36.966Z,3.90
2022-12-06T10:17:56.765Z,4.63
2022-12-06T10:19:12.446Z,4.47
2022-12-06T10:20:13.857Z,4.40
2022-12-06T10:21:25.939Z,4.07
2022-12-06T10:22:35.384Z,4.50
2022-12-06T10:23:43.331Z,4.37
2022-12-06T10:25:03.246Z,4.20
2022-12-06T10:26:15.416Z,3.87
2022-12-06T10:27:35.468Z,4.23
2022-12-06T10:28:48.251Z,4.10
2022-12-06T10:29:58.667Z,4.03
2022-12-06T10:31:05.743Z,3.73
2022-12-06T10:32:13.306Z,4.27
2022-12-06T10:33:23.892Z,4.40
2022-12-06T10:34:35.578Z,4.30
2022-12-06T10:35:40.262Z,3.90
2022-12-06T10:36:56.720Z,3.80
2022-12-06T10:38:16.686Z,3.67
2022-12-06T10:39:22.723Z,4.20
2022-12-06T10:40:26.501Z,4.47
2022-12-06T10:41:33.614Z,4.20
2022-12-06T10:42:34.955Z,4.23
2022-12-06T10:43:41.943Z,4.20
2022-12-06T10:44:43.299Z,4.10
2022-12-06T10:46:09.429Z,4.20
2022-12-06T10:47:14.626Z,3.87
2022-12-06T10:48:28.425Z,4.07
2022-12-06T10:49:35.892Z,4.17
2022-12-06T10:50:40.220Z,4.07
2022-12-06T10:51:44.839Z,3.70
2022-12-06T10:52:48.453Z,3.90
2022-12-06T10:53:52.983Z,3.90
2022-12-06T10:55:09.344Z,3.60
2022-12-06T10:56:18.660Z,3.90
2022-12-06T10:57:29.421Z,3.77
2022-12-06T10:58:34.778Z,3.60
2022-12-06T10:59:51.637Z,3.97
2022-12-06T11:01:01.115Z,3.60
2022-12-06T11:02:14.178Z,4.00
2022-12-06T11:03:19.141Z,3.90
2022-12-06T11:04:24.188Z,4.53
2022-12-06T11:05:31.745Z,4.50
2022-12-06T11:06:54.343Z,4.60
2022-12-06T11:08:01.287Z,5.07
2022-12-06T11:09:17.473Z,4.80
2022-12-06T11:10:24.497Z,4.37
2022-12-06T11:11:34.204Z,3.90
2022-12-06T11:12:38.626Z,4.57
2022-12-06T11:13:40.264Z,4.33
2022-12-06T11:14:43.342Z,4.50
2022-12-06T11:15:49.815Z,4.10
2022-12-06T11:16:57.271Z,3.93
2022-12-06T11:18:15.394Z,3.70
2022-12-06T11:19:20.078Z,3.43
2022-12-06T11:20:24.460Z,3.63
2022-12-06T11:21:25.794Z,4.03
2022-12-06T11:22:40.659Z,4.17
2022-12-06T11:23:55.773Z,3.93
2022-12-06T11:25:02.926Z,3.97
2022-12-06T11:26:10.476Z,4.23
2022-12-06T11:27:15.716Z,3.93
2022-12-06T11:28:23.127Z,3.67
2022-12-06T11:29:24.668Z,3.70
2022-12-06T11:30:26.339Z,4.00
2022-12-06T11:31:32.446Z,4.10
2022-12-06T11:32:33.817Z,3.73
2022-12-06T11:33:35.209Z,4.10
2022-12-06T11:34:39.128Z,3.90
2022-12-06T11:35:40.864Z,3.57
2022-12-06T11:36:42.405Z,3.37
2022-12-06T11:37:44.661Z,3.57
2022-12-06T11:38:46.486Z,3.90
2022-12-06T11:39:49.726Z,3.70
2022-12-06T11:40:51.920Z,3.60
2022-12-06T11:41:55.317Z,4.40
2022-12-06T11:42:58.838Z,3.97
2022-12-06T11:44:00.423Z,3.80
2022-12-06T11:45:07.818Z,4.97
2022-12-06T11:46:10.703Z,3.90
2022-12-06T11:47:15.840Z,4.00
2022-12-06T11:48:18.541Z,4.07
2022-12-06T11:49:34.576Z,3.70
2022-12-06T11:50:36.496Z,3.90
2022-12-06T11:51:37.857Z,3.83
2022-12-06T11:52:43.620Z,3.73
2022-12-06T11:53:51.043Z,4.07
2022-12-06T11:54:59.140Z,4.20
2022-12-06T11:56:03.076Z,4.00
2022-12-06T11:57:20.924Z,4.27
2022-12-06T11:58:34.280Z,4.10
2022-12-06T11:59:35.620Z,3.70
2022-12-06T12:00:37.285Z,4.00
2022-12-06T12:01:41.649Z,3.77
2022-12-06T12:02:44.847Z,4.10
2022-12-06T12:03:47.606Z,3.93
2022-12-06T12:04:49.572Z,3.87
2022-12-06T12:05:50.924Z,3.93
2022-12-06T12:06:56.135Z,3.90
2022-12-06T12:08:02.095Z,3.87
2022-12-06T12:09:05.915Z,4.50
2022-12-06T12:10:24.672Z,4.10
2022-12-06T12:11:28.089Z,3.80
2022-12-06T12:13:04.157Z,3.77
2022-12-06T12:14:14.424Z,3.90
2022-12-06T12:15:17.056Z,3.80
2022-12-06T12:16:18.531Z,4.07
2022-12-06T12:17:22.904Z,3.80
2022-12-06T12:18:30.185Z,3.60
2022-12-06T12:19:34.941Z,4.03
2022-12-06T12:20:38.541Z,3.73
2022-12-06T12:21:41.796Z,3.47
2022-12-06T12:22:43.316Z,3.43
2022-12-06T12:23:45.921Z,3.23
2022-12-06T12:26:15.123Z,3.87
2022-12-06T12:27:28.826Z,3.93
2022-12-06T12:28:33.783Z,3.80
2022-12-06T12:29:35.150Z,3.73
2022-12-06T12:30:37.088Z,3.57
2022-12-06T12:31:53.352Z,4.00
2022-12-06T12:33:07.327Z,4.50
2022-12-06T12:34:20.726Z,4.30
2022-12-06T12:35:22.332Z,3.90
2022-12-06T12:36:26.859Z,4.47
2022-12-06T12:37:28.486Z,4.17
2022-12-06T12:38:51.784Z,4.40
2022-12-06T12:39:53.859Z,3.87
2022-12-06T12:40:58.333Z,3.60
2022-12-06T12:42:00.627Z,3.90
2022-12-06T12:43:05.120Z,3.43
2022-12-06T12:44:36.608Z,3.30
2022-12-06T12:45:35.181Z,3.63
2022-12-06T12:46:37.898Z,3.63
2022-12-06T12:47:39.351Z,3.50
2022-12-06T12:48:41.730Z,3.23
2022-12-06T12:49:43.129Z,3.80
2022-12-06T12:50:52.097Z,3.30
2022-12-06T12:51:53.839Z,3.33
2022-12-06T12:52:55.535Z,3.90
2022-12-06T12:54:19.002Z,3.93
2022-12-06T12:55:30.126Z,3.47
2022-12-06T12:56:33.678Z,3.73
2022-12-06T12:57:35.063Z,3.40
2022-12-06T12:58:36.588Z,3.30
2022-12-06T12:59:40.128Z,3.77
2022-12-06T13:00:43.737Z,3.50
2022-12-06T13:01:46.795Z,3.63
2022-12-06T13:02:58.737Z,3.80
2022-12-06T13:04:20.400Z,2.97
2022-12-06T13:05:44.941Z,3.40
2022-12-06T13:06:54.973Z,3.50
2022-12-06T13:08:00.995Z,3.10
2022-12-06T13:09:04.250Z,3.23
2022-12-06T13:10:08.425Z,3.60
2022-12-06T13:11:10.198Z,3.70
2022-12-06T13:12:14.939Z,3.10
2022-12-06T13:13:18.931Z,3.47
2022-12-06T13:14:21.172Z,3.20
2022-12-06T13:15:36.622Z,3.27
2022-12-06T13:16:38.065Z,3.70
2022-12-06T13:17:41.783Z,3.23
2022-12-06T13:18:47.191Z,3.70
2022-12-06T13:19:59.379Z,3.43
2022-12-06T13:21:12.694Z,2.87
2022-12-06T13:22:17.196Z,3.10
2022-12-06T13:23:20.418Z,3.30
2022-12-06T13:24:26.704Z,3.40
2022-12-06T13:25:28.580Z,3.50
2022-12-06T13:26:31.833Z,3.17
2022-12-06T13:27:36.211Z,3.60
2022-12-06T13:28:40.914Z,3.67
2022-12-06T13:29:47.226Z,3.40
2022-12-06T13:30:51.825Z,3.93
2022-12-06T13:31:53.991Z,4.63
2022-12-06T13:32:55.406Z,4.67
2022-12-06T13:34:02.565Z,5.10
2022-12-06T13:35:06.588Z,4.00
2022-12-06T13:36:10.760Z,3.83
2022-12-06T13:37:30.366Z,3.80
2022-12-06T13:38:32.963Z,3.30
2022-12-06T13:39:38.775Z,3.30
2022-12-06T13:40:45.329Z,3.27
2022-12-06T13:42:12.210Z,3.53
2022-12-06T13:43:25.942Z,3.57
2022-12-06T13:44:42.759Z,3.63
2022-12-06T13:45:45.567Z,3.50
2022-12-06T13:46:47.112Z,3.30
2022-12-06T13:47:49.404Z,3.20
2022-12-06T13:48:56.875Z,3.27
2022-12-06T13:49:58.235Z,3.50
2022-12-06T13:51:01.529Z,3.10
2022-12-06T13:52:03.141Z,3.53
2022-12-06T13:53:04.524Z,3.40
2022-12-06T13:54:05.887Z,3.27
2022-12-06T13:55:25.661Z,3.50
2022-12-06T13:56:29.237Z,3.43
2022-12-06T13:57:31.768Z,3.50
2022-12-06T13:58:38.224Z,3.50
2022-12-06T13:59:40.368Z,3.40
2022-12-06T14:00:41.740Z,3.33
2022-12-06T14:01:43.317Z,3.40
2022-12-06T14:02:46.477Z,3.17
2022-12-06T14:03:54.700Z,3.20
2022-12-06T14:04:56.051Z,3.47
2022-12-06T14:06:57.686Z,3.10
2022-12-06T14:07:59.124Z,3.07
2022-12-06T14:09:00.908Z,3.30
2022-12-06T14:10:08.049Z,3.20
2022-12-06T14:11:12.460Z,3.47
2022-12-06T14:12:17.614Z,3.20
2022-12-06T14:13:20.531Z,3.20
2022-12-06T14:14:23.271Z,2.90
2022-12-06T14:15:27.041Z,2.97
2022-12-06T14:16:34.549Z,2.90
2022-12-06T14:18:01.582Z,3.10
2022-12-06T14:18:59.888Z,3.30
2022-12-06T14:20:02.628Z,3.27
2022-12-06T14:21:04.382Z,3.43
2022-12-06T14:22:15.674Z,3.17
2022-12-06T14:23:25.024Z,3.20
2022-12-06T14:24:29.629Z,3.60
2022-12-06T14:25:31.531Z,3.60